Summer Shade, KY (42166)

3:32 PM CDT on May 28, 2015 (GMT -0500)
Scout Reservation | | Change Station
CLOSE
Current Station
Personal Weather Station
Location: Temple Hill, KY
Elevation: 780 ft
Nearby Weather Stations

Elev 780 ft 36.90 °N, 85.88 °W | Updated 25 seconds ago

Mostly Cloudy
Mostly Cloudy
80.7 °F
Feels Like 83 °F
N
3.0
Wind Variable Wind from ENE
Gusts 5.0 mph

Today
High -- | Low -- °F
--% Chance of Precip.
Yesterday
High -- | Low -- °F
Precip. -- in
5:26 AM 7:53 PM
Waxing Gibbous, 78% visible
Pressure 30.16 in
Visibility 10.0 miles
Clouds Scattered Clouds 3700 ft
Mostly Cloudy 5500 ft
Heat Index 83 °F
Dew Point 66 °F
Humidity 60%
Rainfall 0.00 in
Snow Depth Not available.
UV 5 out of 12
Pollen 7.10 out of 12
Air Quality Not available.
Flu Activity Sporadic
METAR KGLW 282010Z AUTO 10006KT 10SM SCT037 BKN055 27/17 A3016 RMK AO2 T02650172

More Conditions Fewer Conditions

Pressure 30.16 in
Visibility 10.0 miles
Clouds Scattered Clouds 3700 ft
Mostly Cloudy 5500 ft
Heat Index 83 °F
Dew Point 66 °F
Humidity 60%
Rainfall 0.00 in
Snow Depth Not available.
UV 5 out of 12
Pollen 7.10 out of 12
Air Quality Not available.
Flu Activity Sporadic
METAR KGLW 282010Z AUTO 10006KT 10SM SCT037 BKN055 27/17 A3016 RMK AO2 T02650172

More Conditions Fewer Conditions

10-Day Weather Forecast

Almanac

Astronomy

May. 28, 2015 Rise Set
Actual Time
Civil Twilight
Nautical Twilight
Astronomical Twilight
Moon
Length of Visible Light
Length of Day
Tomorrow will be .
, % of the Moon is Illuminated

Today's Extremes

State Highs State Lows

Community

WunderPhotos

Upload Photos

1,825,056 photos uploaded!

WunderBlogs® & News

Nearby

Air Quality

  Air Quality AQ Index Pollutant
Not available.

Snow Depth

Station Depth Elevation

Earthquake Activity

City Distance Mag. Time & Date
Minimum magnitude displayed is 2.5.

Coastal Water Temperatures

Place Temperature

Stations

Nearby Weather Stations

Station Location Temp. Windchill Dew Point Humidity Wind Precip. Elev Updated Type